createdAt,value
2018-12-13T00:02:10.495Z,1.10
2018-12-13T00:04:37.435Z,1.10
2018-12-13T00:07:04.415Z,1.10
2018-12-13T00:09:31.495Z,1.10
2018-12-13T00:11:58.597Z,1.00
2018-12-13T00:14:25.634Z,1.00
2018-12-13T00:16:52.594Z,1.00
2018-12-13T00:19:19.573Z,1.00
2018-12-13T00:21:46.654Z,0.90
2018-12-13T00:24:13.715Z,1.00
2018-12-13T00:26:40.677Z,0.90
2018-12-13T00:29:07.754Z,0.90
2018-12-13T00:31:34.754Z,1.00
2018-12-13T00:34:01.735Z,1.00
2018-12-13T00:36:28.754Z,1.10
2018-12-13T00:39:04.813Z,1.10
2018-12-13T00:41:31.914Z,1.10
2018-12-13T00:43:58.955Z,1.10
2018-12-13T00:46:25.994Z,1.00
2018-12-13T00:48:53.054Z,1.10
2018-12-13T00:51:20.075Z,1.10
2018-12-13T00:53:47.117Z,1.10
2018-12-13T00:56:14.075Z,1.10
2018-12-13T00:58:41.393Z,1.10
2018-12-13T01:01:08.375Z,1.00
2018-12-13T01:03:35.436Z,1.00
2018-12-13T01:06:02.435Z,1.00
2018-12-13T01:08:29.475Z,1.00
2018-12-13T01:10:56.534Z,1.00
2018-12-13T01:13:23.535Z,1.00
2018-12-13T01:15:50.534Z,1.00
2018-12-13T01:18:17.594Z,1.00
2018-12-13T01:20:44.635Z,1.00
2018-12-13T01:23:11.794Z,1.00
2018-12-13T01:25:38.875Z,1.00
2018-12-13T01:28:06.276Z,1.00
2018-12-13T01:30:33.255Z,1.10
2018-12-13T01:33:00.236Z,1.10
2018-12-13T01:35:27.653Z,1.00
2018-12-13T01:38:01.596Z,1.00
2018-12-13T01:40:28.677Z,1.00
2018-12-13T01:42:55.719Z,1.10
2018-12-13T01:45:22.675Z,1.10
2018-12-13T01:47:50.455Z,1.00
2018-12-13T01:50:17.435Z,1.10
2018-12-13T01:52:44.395Z,1.10
2018-12-13T01:55:11.436Z,1.10
2018-12-13T01:57:38.415Z,1.10
2018-12-13T02:00:12.535Z,1.00
2018-12-13T02:02:46.637Z,1.00
2018-12-13T02:05:13.695Z,1.00
2018-12-13T02:07:40.696Z,1.00
2018-12-13T02:10:07.855Z,1.00
2018-12-13T02:12:34.839Z,0.90
2018-12-13T02:15:01.916Z,1.00
2018-12-13T02:17:28.856Z,1.00
2018-12-13T02:20:03.855Z,1.00
2018-12-13T02:22:30.895Z,1.00
2018-12-13T02:24:57.974Z,1.00
2018-12-13T02:27:24.935Z,1.00
2018-12-13T02:29:52.055Z,1.00
2018-12-13T02:32:19.036Z,1.00
2018-12-13T02:34:46.159Z,1.00
2018-12-13T02:37:13.176Z,1.00
2018-12-13T02:39:40.452Z,1.00
2018-12-13T02:42:07.669Z,1.00
2018-12-13T02:44:34.734Z,0.90
2018-12-13T02:47:01.915Z,0.90
2018-12-13T02:49:28.931Z,0.90
2018-12-13T02:51:55.911Z,0.90
2018-12-13T02:54:22.892Z,0.90
2018-12-13T02:56:49.931Z,0.90
2018-12-13T02:59:16.911Z,0.80
2018-12-13T03:01:43.991Z,0.80
2018-12-13T03:04:10.972Z,0.80
2018-12-13T03:06:38.013Z,0.80
2018-12-13T03:09:06.733Z,0.70
2018-12-13T03:11:33.672Z,0.70
2018-12-13T03:14:00.693Z,0.70
2018-12-13T03:16:27.950Z,0.70
2018-12-13T03:18:55.191Z,0.70
2018-12-13T03:21:22.239Z,0.70
2018-12-13T03:23:49.335Z,0.70
2018-12-13T03:26:16.452Z,0.80
2018-12-13T03:28:43.646Z,0.80
2018-12-13T03:31:10.694Z,0.70
2018-12-13T03:33:37.771Z,0.80
2018-12-13T03:36:04.773Z,0.80
2018-12-13T03:38:31.691Z,0.80
2018-12-13T03:40:58.692Z,0.80
2018-12-13T03:43:25.653Z,0.80
2018-12-13T03:45:52.673Z,0.80
2018-12-13T03:48:19.672Z,0.80
2018-12-13T03:50:46.652Z,0.80
2018-12-13T03:53:13.573Z,0.80
2018-12-13T03:55:40.554Z,0.80
2018-12-13T03:58:07.591Z,0.80
2018-12-13T04:00:35.113Z,0.80
2018-12-13T04:03:02.071Z,0.80
2018-12-13T04:05:29.051Z,0.80
2018-12-13T04:07:56.051Z,0.70
2018-12-13T04:10:23.151Z,0.70
2018-12-13T04:12:50.132Z,0.70
2018-12-13T04:15:17.132Z,0.60
2018-12-13T04:17:44.075Z,0.60
2018-12-13T04:20:11.114Z,0.60
2018-12-13T04:22:38.113Z,0.50
2018-12-13T04:25:05.225Z,0.50
2018-12-13T04:27:32.231Z,0.50
2018-12-13T04:29:59.191Z,0.50
2018-12-13T04:32:26.198Z,0.50
2018-12-13T04:34:53.174Z,0.50
2018-12-13T04:37:20.150Z,0.50
2018-12-13T04:39:47.150Z,0.50
2018-12-13T04:42:14.152Z,0.50
2018-12-13T04:44:41.091Z,0.40
2018-12-13T04:47:08.092Z,0.40
2018-12-13T04:49:35.078Z,0.40
2018-12-13T04:52:02.059Z,0.40
2018-12-13T04:54:29.031Z,0.40
2018-12-13T04:56:56.036Z,0.30
2018-12-13T04:59:23.051Z,0.30
2018-12-13T05:01:50.030Z,0.40
2018-12-13T05:04:16.971Z,0.30
2018-12-13T05:06:44.029Z,0.30
2018-12-13T05:09:11.073Z,0.40
2018-12-13T05:11:38.131Z,0.30
2018-12-13T05:14:05.090Z,0.30
2018-12-13T05:16:32.051Z,0.30
2018-12-13T05:18:59.070Z,0.30
2018-12-13T05:21:26.033Z,0.30
2018-12-13T05:23:53.050Z,0.30
2018-12-13T05:26:19.970Z,0.20
2018-12-13T05:28:46.970Z,0.20
2018-12-13T05:31:13.972Z,0.20
2018-12-13T05:33:40.950Z,0.20
2018-12-13T05:36:14.950Z,0.20
2018-12-13T05:38:42.000Z,0.20
2018-12-13T05:41:08.972Z,0.20
2018-12-13T05:43:35.971Z,0.20
2018-12-13T05:46:03.010Z,0.20
2018-12-13T05:48:29.970Z,0.10
2018-12-13T05:50:57.495Z,0.10
2018-12-13T05:53:24.521Z,0.10
2018-12-13T05:55:51.460Z,0.10
2018-12-13T05:58:18.420Z,0.10
2018-12-13T06:00:45.440Z,0.10
2018-12-13T06:03:12.461Z,0.10
2018-12-13T06:05:39.501Z,0.20
2018-12-13T06:08:06.542Z,0.20
2018-12-13T06:10:34.121Z,0.20
2018-12-13T06:13:01.082Z,0.20
2018-12-13T06:15:28.041Z,0.20
2018-12-13T06:17:56.100Z,0.20
2018-12-13T06:20:23.081Z,0.20
2018-12-13T06:22:50.061Z,0.10
2018-12-13T06:25:17.142Z,0.10
2018-12-13T06:27:44.061Z,0.20
2018-12-13T06:30:11.122Z,0.20
2018-12-13T06:32:38.141Z,0.20
2018-12-13T06:35:05.461Z,0.20
2018-12-13T06:37:32.442Z,0.20
2018-12-13T06:39:59.463Z,0.20
2018-12-13T06:42:26.461Z,0.20
2018-12-13T06:44:53.481Z,0.10
2018-12-13T06:47:20.442Z,0.10
2018-12-13T06:49:47.422Z,0.20
2018-12-13T06:52:14.382Z,0.10
2018-12-13T06:54:41.406Z,0.10
2018-12-13T06:57:08.361Z,0.10
2018-12-13T06:59:35.341Z,0.00
2018-12-13T07:02:02.702Z,0.00
2018-12-13T07:04:29.682Z,-0.10
2018-12-13T07:06:56.700Z,-0.10
2018-12-13T07:09:30.681Z,-0.10
2018-12-13T07:11:57.762Z,-0.20
2018-12-13T07:14:24.782Z,-0.20
2018-12-13T07:16:51.882Z,-0.20
2018-12-13T07:19:18.941Z,-0.20
2018-12-13T07:21:45.982Z,-0.20
2018-12-13T07:24:12.981Z,-0.30
2018-12-13T07:26:40.121Z,-0.30
2018-12-13T07:29:07.182Z,-0.40
2018-12-13T07:31:34.282Z,-0.30
2018-12-13T07:34:01.299Z,-0.30
2018-12-13T07:36:28.259Z,-0.20
2018-12-13T07:38:55.198Z,-0.20
2018-12-13T07:41:22.258Z,-0.20
2018-12-13T07:43:49.217Z,-0.20
2018-12-13T07:46:16.258Z,-0.20
2018-12-13T07:48:43.298Z,-0.10
2018-12-13T07:51:10.339Z,-0.10
2018-12-13T07:53:37.396Z,0.00
2018-12-13T07:56:04.478Z,0.00
2018-12-13T07:58:31.397Z,0.10
2018-12-13T08:00:58.442Z,0.10
2018-12-13T08:03:25.483Z,0.10
2018-12-13T08:05:52.518Z,0.20
2018-12-13T08:08:21.048Z,0.20
2018-12-13T08:10:48.318Z,0.30
2018-12-13T08:13:15.300Z,0.20
2018-12-13T08:15:42.298Z,0.30
2018-12-13T08:18:09.299Z,0.30
2018-12-13T08:20:36.218Z,0.30
2018-12-13T08:23:03.619Z,0.40
2018-12-13T08:25:30.679Z,0.30
2018-12-13T08:27:57.678Z,0.30
2018-12-13T08:30:24.757Z,0.20
2018-12-13T08:32:51.679Z,0.20
2018-12-13T08:35:18.658Z,0.20
2018-12-13T08:37:52.558Z,0.30
2018-12-13T08:40:20.041Z,0.30
2018-12-13T08:42:47.519Z,0.30
2018-12-13T08:45:14.479Z,0.40
2018-12-13T08:47:41.479Z,0.40
2018-12-13T08:50:08.638Z,0.50
2018-12-13T08:52:35.679Z,0.50
2018-12-13T08:55:03.519Z,0.50
2018-12-13T08:57:30.518Z,0.50
2018-12-13T08:59:57.519Z,0.50
2018-12-13T09:02:24.518Z,0.50
2018-12-13T09:04:51.518Z,0.50
2018-12-13T09:07:18.518Z,0.50
2018-12-13T09:09:45.519Z,0.60
2018-12-13T09:12:12.639Z,0.70
2018-12-13T09:14:39.660Z,0.80
2018-12-13T09:17:06.719Z,0.80
2018-12-13T09:19:33.743Z,0.80
2018-12-13T09:22:00.718Z,0.80
2018-12-13T09:24:27.700Z,0.90
2018-12-13T09:26:54.699Z,0.90
2018-12-13T09:29:21.659Z,1.00
2018-12-13T09:31:48.639Z,0.90
2018-12-13T09:34:15.619Z,0.90
2018-12-13T09:36:42.644Z,0.80
2018-12-13T09:39:09.659Z,0.70
2018-12-13T09:41:36.639Z,0.60
2018-12-13T09:44:03.679Z,0.60
2018-12-13T09:46:30.759Z,0.50
2018-12-13T09:48:57.719Z,0.50
2018-12-13T09:51:31.940Z,0.50
2018-12-13T09:53:58.959Z,0.40
2018-12-13T09:56:25.978Z,0.50
2018-12-13T09:58:53.082Z,0.50
2018-12-13T10:01:20.240Z,0.50
2018-12-13T10:03:47.419Z,0.70
2018-12-13T10:06:14.418Z,0.80
2018-12-13T10:08:46.294Z,0.90
2018-12-13T10:11:11.179Z,1.00
2018-12-13T10:13:38.239Z,1.10
2018-12-13T10:16:05.240Z,1.10
2018-12-13T10:18:32.273Z,1.20
2018-12-13T10:20:59.238Z,1.20
2018-12-13T10:23:26.240Z,1.20
2018-12-13T10:25:59.405Z,1.20
2018-12-13T10:28:22.239Z,1.20
2018-12-13T10:30:49.242Z,1.20
2018-12-13T10:33:16.300Z,1.20
2018-12-13T10:35:43.437Z,1.20
2018-12-13T10:38:10.475Z,1.10
2018-12-13T10:40:37.478Z,1.10
2018-12-13T10:43:04.554Z,1.10
2018-12-13T10:45:31.516Z,1.10
2018-12-13T10:47:58.475Z,1.20
2018-12-13T10:50:25.503Z,1.20
2018-12-13T10:52:52.516Z,1.20
2018-12-13T10:55:19.496Z,1.20
2018-12-13T10:57:46.516Z,1.20
2018-12-13T11:00:19.577Z,1.10
2018-12-13T11:03:14.935Z,1.10
2018-12-13T11:05:42.015Z,1.10
2018-12-13T11:08:08.975Z,1.00
2018-12-13T11:10:42.997Z,1.00
2018-12-13T11:13:09.995Z,1.00
2018-12-13T11:15:36.995Z,1.00
2018-12-13T11:18:04.114Z,1.00
2018-12-13T11:20:31.135Z,1.00
2018-12-13T11:22:58.136Z,1.10
2018-12-13T11:25:25.296Z,1.10
2018-12-13T11:28:24.995Z,1.00
2018-12-13T11:30:51.995Z,1.10
2018-12-13T11:33:18.994Z,1.10
2018-12-13T11:35:46.035Z,1.10
2018-12-13T11:38:13.114Z,1.10
2018-12-13T11:40:40.120Z,1.10
2018-12-13T11:43:07.134Z,1.00
2018-12-13T11:45:34.155Z,1.00
2018-12-13T11:48:01.196Z,1.00
2018-12-13T11:50:28.174Z,1.00
2018-12-13T11:52:55.557Z,0.90
2018-12-13T11:55:33.497Z,0.90
2018-12-13T11:58:02.036Z,0.80
2018-12-13T12:00:29.097Z,0.80
2018-12-13T12:02:55.995Z,0.80
2018-12-13T12:05:22.997Z,0.80
2018-12-13T12:07:50.057Z,0.80
2018-12-13T12:10:17.135Z,0.90
2018-12-13T12:12:44.196Z,0.90
2018-12-13T12:15:11.436Z,0.90
2018-12-13T12:17:39.096Z,0.90
2018-12-13T12:20:07.154Z,0.90
2018-12-13T12:22:34.195Z,0.90
2018-12-13T12:25:01.160Z,0.80
2018-12-13T12:27:28.115Z,0.80
2018-12-13T12:29:55.136Z,0.80
2018-12-13T12:32:29.015Z,0.80
2018-12-13T12:34:55.996Z,0.80
2018-12-13T12:37:23.016Z,0.80
2018-12-13T12:39:49.961Z,0.80
2018-12-13T12:42:16.957Z,0.80
2018-12-13T12:44:44.055Z,0.80
2018-12-13T12:47:11.059Z,0.80
2018-12-13T12:49:38.275Z,0.80
2018-12-13T12:52:12.195Z,0.80
2018-12-13T12:54:39.175Z,0.80
2018-12-13T12:57:06.175Z,0.70
2018-12-13T12:59:33.156Z,0.70
2018-12-13T13:02:00.456Z,0.70
2018-12-13T13:04:27.516Z,0.70
2018-12-13T13:06:54.492Z,0.70
2018-12-13T13:09:25.051Z,0.80
2018-12-13T13:11:50.637Z,0.70
2018-12-13T13:14:17.576Z,0.70
2018-12-13T13:16:44.636Z,0.70
2018-12-13T13:19:11.656Z,0.70
2018-12-13T13:21:38.656Z,0.70
2018-12-13T13:24:05.636Z,0.60
2018-12-13T13:26:32.696Z,0.60
2018-12-13T13:28:59.696Z,0.60
2018-12-13T13:31:26.696Z,0.50
2018-12-13T13:33:53.756Z,0.50
2018-12-13T13:36:27.915Z,0.50
2018-12-13T13:38:54.896Z,0.50
2018-12-13T13:41:21.917Z,0.50
2018-12-13T13:43:48.899Z,0.50
2018-12-13T13:46:15.835Z,0.50
2018-12-13T13:48:42.837Z,0.50
2018-12-13T13:51:09.897Z,0.50
2018-12-13T13:53:37.256Z,0.40
2018-12-13T13:56:04.375Z,0.40
2018-12-13T13:58:31.036Z,0.40
2018-12-13T14:00:58.375Z,0.40
2018-12-13T14:03:25.397Z,0.40
2018-12-13T14:05:52.437Z,0.40
2018-12-13T14:08:19.637Z,0.30
2018-12-13T14:10:46.695Z,0.30
2018-12-13T14:13:14.031Z,0.30
2018-12-13T14:15:41.036Z,0.30
2018-12-13T14:18:08.071Z,0.20
2018-12-13T14:20:35.210Z,0.10
2018-12-13T14:23:02.039Z,0.00
2018-12-13T14:25:28.891Z,0.00
2018-12-13T14:27:56.311Z,0.00
2018-12-13T14:30:23.271Z,-0.10
2018-12-13T14:32:50.231Z,-0.10
2018-12-13T14:35:17.350Z,-0.10
2018-12-13T14:37:44.350Z,-0.10
2018-12-13T14:40:11.350Z,-0.10
2018-12-13T14:42:38.371Z,-0.10
2018-12-13T14:45:05.470Z,-0.10
2018-12-13T14:47:32.682Z,-0.10
2018-12-13T14:49:59.720Z,-0.20
2018-12-13T14:52:26.675Z,-0.20
2018-12-13T14:54:54.177Z,-0.20
2018-12-13T14:57:20.992Z,-0.20
2018-12-13T14:59:48.021Z,-0.20
2018-12-13T15:02:14.978Z,-0.20
2018-12-13T15:04:41.986Z,-0.20
2018-12-13T15:07:08.929Z,-0.20
2018-12-13T15:09:35.808Z,-0.20
2018-12-13T15:12:02.768Z,-0.20
2018-12-13T15:14:29.826Z,-0.20
2018-12-13T15:16:56.749Z,-0.20
2018-12-13T15:19:23.729Z,-0.20
2018-12-13T15:21:50.828Z,-0.20
2018-12-13T15:24:18.210Z,-0.20
2018-12-13T15:26:45.148Z,-0.20
2018-12-13T15:29:12.919Z,-0.20
2018-12-13T15:31:39.950Z,-0.20
2018-12-13T15:34:06.998Z,-0.20
2018-12-13T15:36:33.997Z,-0.20
2018-12-13T15:39:00.917Z,-0.20
2018-12-13T15:41:27.936Z,-0.20
2018-12-13T15:43:54.860Z,-0.20
2018-12-13T15:46:21.862Z,-0.20
2018-12-13T15:48:55.825Z,-0.20
2018-12-13T15:51:22.804Z,-0.20
2018-12-13T15:53:49.796Z,-0.20
2018-12-13T15:56:17.663Z,-0.20
2018-12-13T15:58:44.676Z,-0.20
2018-12-13T16:01:11.629Z,-0.30
2018-12-13T16:03:38.482Z,-0.20
2018-12-13T16:06:05.496Z,-0.20
2018-12-13T16:08:32.457Z,-0.20
2018-12-13T16:10:59.376Z,-0.20
2018-12-13T16:13:26.376Z,-0.30
2018-12-13T16:15:53.458Z,-0.30
2018-12-13T16:18:20.480Z,-0.20
2018-12-13T16:20:47.631Z,-0.20
2018-12-13T16:23:14.605Z,-0.20
2018-12-13T16:25:41.577Z,-0.20
2018-12-13T16:28:08.599Z,-0.20
2018-12-13T16:30:35.718Z,-0.20
2018-12-13T16:33:02.677Z,-0.20
2018-12-13T16:35:29.663Z,-0.20
2018-12-13T16:38:03.577Z,-0.20
2018-12-13T16:40:31.177Z,-0.20
2018-12-13T16:42:58.218Z,-0.20
2018-12-13T16:45:25.336Z,-0.20
2018-12-13T16:47:52.358Z,-0.30
2018-12-13T16:50:19.537Z,-0.20
2018-12-13T16:52:46.527Z,-0.30
2018-12-13T16:55:13.452Z,-0.30
2018-12-13T16:57:40.890Z,-0.30
2018-12-13T17:00:10.895Z,-0.30
2018-12-13T17:02:37.749Z,-0.30
2018-12-13T17:05:05.188Z,-0.30
2018-12-13T17:07:32.287Z,-0.40
2018-12-13T17:09:59.328Z,-0.40
2018-12-13T17:12:26.309Z,-0.40
2018-12-13T17:14:53.267Z,-0.40
2018-12-13T17:17:20.328Z,-0.50
2018-12-13T17:19:47.108Z,-0.50
2018-12-13T17:22:14.151Z,-0.50
2018-12-13T17:24:41.089Z,-0.50
2018-12-13T17:27:08.157Z,-0.50
2018-12-13T17:29:35.117Z,-0.50
2018-12-13T17:32:02.384Z,-0.50
2018-12-13T17:34:29.355Z,-0.50
2018-12-13T17:36:56.336Z,-0.60
2018-12-13T17:39:23.434Z,-0.60
2018-12-13T17:41:50.375Z,-0.60
2018-12-13T17:44:17.295Z,-0.60
2018-12-13T17:46:44.297Z,-0.60
2018-12-13T17:49:11.214Z,-0.60
2018-12-13T17:51:38.235Z,-0.60
2018-12-13T17:54:05.315Z,-0.60
2018-12-13T17:56:32.334Z,-0.60
2018-12-13T17:58:59.338Z,-0.60
2018-12-13T18:01:26.314Z,-0.60
2018-12-13T18:03:53.417Z,-0.60
2018-12-13T18:06:20.434Z,-0.60
2018-12-13T18:08:47.395Z,-0.60
2018-12-13T18:11:14.434Z,-0.60
2018-12-13T18:13:41.426Z,-0.50
2018-12-13T18:16:08.503Z,-0.60
2018-12-13T18:18:35.502Z,-0.60
2018-12-13T18:21:02.544Z,-0.60
2018-12-13T18:23:30.043Z,-0.60
2018-12-13T18:25:57.122Z,-0.60
2018-12-13T18:28:24.484Z,-0.60
2018-12-13T18:30:51.463Z,-0.70
2018-12-13T18:33:18.524Z,-0.60
2018-12-13T18:35:45.563Z,-0.70
2018-12-13T18:38:12.543Z,-0.70
2018-12-13T18:40:40.024Z,-0.80
2018-12-13T18:43:07.084Z,-0.80
2018-12-13T18:45:36.217Z,-0.80
2018-12-13T18:48:03.524Z,-0.80
2018-12-13T18:50:30.645Z,-0.80
2018-12-13T18:52:57.783Z,-0.80
2018-12-13T18:55:24.797Z,-0.80
2018-12-13T18:57:52.808Z,-0.80
2018-12-13T19:00:19.641Z,-0.80
2018-12-13T19:02:46.657Z,-0.80
2018-12-13T19:05:13.594Z,-0.80
2018-12-13T19:07:40.589Z,-0.70
2018-12-13T19:10:07.635Z,-0.60
2018-12-13T19:12:34.655Z,-0.60
2018-12-13T19:15:01.903Z,-0.60
2018-12-13T19:17:28.830Z,-0.60
2018-12-13T19:19:55.850Z,-0.60
2018-12-13T19:22:22.810Z,-0.60
2018-12-13T19:24:49.810Z,-0.50
2018-12-13T19:27:16.870Z,-0.60
2018-12-13T19:29:43.929Z,-0.60
2018-12-13T19:32:10.870Z,-0.60
2018-12-13T19:34:38.251Z,-0.60
2018-12-13T19:37:05.150Z,-0.60
2018-12-13T19:39:32.092Z,-0.60
2018-12-13T19:41:59.173Z,-0.60
2018-12-13T19:44:26.130Z,-0.60
2018-12-13T19:46:53.210Z,-0.60
2018-12-13T19:49:20.649Z,-0.50
2018-12-13T19:51:47.649Z,-0.60
2018-12-13T19:54:14.930Z,-0.60
2018-12-13T19:56:42.031Z,-0.60
2018-12-13T19:59:09.042Z,-0.70
2018-12-13T20:01:36.163Z,-0.70
2018-12-13T20:04:03.322Z,-0.70
2018-12-13T20:06:30.463Z,-0.70
2018-12-13T20:08:57.835Z,-0.70
2018-12-13T20:11:24.873Z,-0.80
2018-12-13T20:13:52.047Z,-0.80
2018-12-13T20:16:19.116Z,-0.70
2018-12-13T20:18:46.378Z,-0.70
2018-12-13T20:21:13.562Z,-0.70
2018-12-13T20:23:41.674Z,-0.70
2018-12-13T20:26:09.315Z,-0.70
2018-12-13T20:28:36.433Z,-0.80
2018-12-13T20:31:03.576Z,-0.80
2018-12-13T20:33:30.635Z,-0.80
2018-12-13T20:35:57.716Z,-0.70
2018-12-13T20:38:24.977Z,-0.80
2018-12-13T20:40:52.114Z,-0.80
2018-12-13T20:43:19.135Z,-0.80
2018-12-13T20:45:46.415Z,-0.80
2018-12-13T20:48:13.417Z,-0.80
2018-12-13T20:50:40.418Z,-0.80
2018-12-13T20:53:07.776Z,-0.80
2018-12-13T20:55:34.836Z,-0.80
2018-12-13T20:58:01.815Z,-0.70
2018-12-13T21:00:28.874Z,-0.70
2018-12-13T21:02:55.894Z,-0.60
2018-12-13T21:05:22.875Z,-0.60
2018-12-13T21:07:52.075Z,-0.60
2018-12-13T21:10:19.054Z,-0.60
2018-12-13T21:12:46.134Z,-0.50
2018-12-13T21:15:13.097Z,-0.50
2018-12-13T21:17:40.294Z,-0.50
2018-12-13T21:20:07.495Z,-0.50
2018-12-13T21:22:34.634Z,-0.50
2018-12-13T21:25:01.737Z,-0.50
2018-12-13T21:27:28.739Z,-0.50
2018-12-13T21:29:55.758Z,-0.50
2018-12-13T21:32:22.729Z,-0.50
2018-12-13T21:34:57.588Z,-0.50
2018-12-13T21:37:24.547Z,-0.60
2018-12-13T21:39:51.487Z,-0.60
2018-12-13T21:42:18.507Z,-0.60
2018-12-13T21:44:45.427Z,-0.60
2018-12-13T21:47:12.446Z,-0.60
2018-12-13T21:49:39.346Z,-0.60
2018-12-13T21:52:06.408Z,-0.60
2018-12-13T21:54:33.346Z,-0.70
2018-12-13T21:57:00.848Z,-0.70
2018-12-13T21:59:27.766Z,-0.70
2018-12-13T22:01:54.866Z,-0.80
2018-12-13T22:04:21.806Z,-0.70
2018-12-13T22:06:48.806Z,-0.80
2018-12-13T22:09:16.108Z,-0.80
2018-12-13T22:11:43.126Z,-0.80
2018-12-13T22:14:10.287Z,-0.90
2018-12-13T22:16:37.286Z,-0.90
2018-12-13T22:19:04.227Z,-0.90
2018-12-13T22:21:31.346Z,-0.90
2018-12-13T22:23:58.287Z,-0.90
2018-12-13T22:26:25.587Z,-0.90
2018-12-13T22:28:52.612Z,-1.00
2018-12-13T22:31:19.607Z,-1.00
2018-12-13T22:33:46.646Z,-1.00
2018-12-13T22:36:13.646Z,-1.00
2018-12-13T22:38:40.687Z,-1.00
2018-12-13T22:41:07.687Z,-1.00
2018-12-13T22:43:34.748Z,-1.10
2018-12-13T22:46:03.627Z,-1.10
2018-12-13T22:48:32.547Z,-1.10
2018-12-13T22:51:00.370Z,-1.10
2018-12-13T22:53:27.367Z,-1.10
2018-12-13T22:55:54.387Z,-1.10
2018-12-13T22:58:21.529Z,-1.20
2018-12-13T23:00:48.608Z,-1.20
2018-12-13T23:03:15.807Z,-1.20
2018-12-13T23:05:42.847Z,-1.30
2018-12-13T23:08:09.827Z,-1.30
2018-12-13T23:10:43.747Z,-1.30
2018-12-13T23:13:10.787Z,-1.30
2018-12-13T23:15:37.767Z,-1.30
2018-12-13T23:18:04.947Z,-1.30
2018-12-13T23:20:32.067Z,-1.30
2018-12-13T23:22:59.086Z,-1.40
2018-12-13T23:25:26.067Z,-1.40
2018-12-13T23:27:53.090Z,-1.50
2018-12-13T23:30:20.067Z,-1.50
2018-12-13T23:32:47.066Z,-1.50
2018-12-13T23:35:14.006Z,-1.50
2018-12-13T23:37:41.026Z,-1.60
2018-12-13T23:40:08.027Z,-1.60
2018-12-13T23:42:34.967Z,-1.70
2018-12-13T23:45:02.027Z,-1.70
2018-12-13T23:47:28.947Z,-1.70
2018-12-13T23:49:55.927Z,-1.70
2018-12-13T23:52:22.867Z,-1.80
2018-12-13T23:54:49.887Z,-1.80
2018-12-13T23:57:16.834Z,-1.70
2018-12-13T23:59:43.747Z,-1.80
